20 mai 2022

Temps Code Temps Temp. Vue Des nuages Vent METAR/SPECI
17:30
V
29 °C 10 km+ - 130°   130° 12 kt METAR LFCK 201530Z AUTO 13012KT CAVOK 29/15 Q1023 NOSIG
17:00
V
28 °C 10 km+ - 130°   130° 14 kt METAR LFCK 201500Z AUTO 13014KT CAVOK 28/14 Q1023 NOSIG
16:30
V
28 °C 10 km+ - 130°   130° 13 kt METAR LFCK 201430Z AUTO 13013KT CAVOK 28/14 Q1023 NOSIG
16:00
V
29 °C 10 km+ - 120°   120° 13 kt METAR LFCK 201400Z AUTO 12013KT CAVOK 29/14 Q1023 NOSIG
15:30
V
28 °C 10 km+ - 110°   110° 17 kt METAR LFCK 201330Z AUTO 11017KT CAVOK 28/14 Q1023 NOSIG
15:00
V
28 °C 10 km+ - 110°   110° 17 kt METAR LFCK 201300Z AUTO 11017KT CAVOK 28/15 Q1022 NOSIG
14:30
V
27 °C 10 km+ - 110°   110° 19 kt METAR LFCK 201230Z AUTO 11019KT CAVOK 27/15 Q1022 NOSIG
14:00
V
27 °C 10 km+ - 120°   120° 20 kt METAR LFCK 201200Z AUTO 12020KT CAVOK 27/15 Q1022 BECMG 13010KT
13:30
V
27 °C 9 km - 120°   120° 24 kt METAR LFCK 201130Z AUTO 12024KT 9000 NSC 27/14 Q1022 BECMG 13010KT
13:00
V
27 °C 8 km - 110°   110° 23 kt METAR LFCK 201100Z AUTO 11023KT 080V140 8000 NSC 27/14 Q1022 BECMG 13020G30KT
12:30
V
27 °C 8 km - 120°   120° 24 kt METAR LFCK 201030Z AUTO 12024KT 8000 NSC 27/14 Q1022 BECMG 13020G30KT
12:00
V
26 °C 8 km - 120°   120° 25 36 kt METAR LFCK 201000Z AUTO 12025G36KT 8000 NSC 26/14 Q1021 NOSIG
11:30
V
26 °C 8 km - 120°   120° 23 34 kt METAR LFCK 200930Z AUTO 12023G34KT 090V150 8000 NSC 26/14 Q1022 NOSIG
11:00
V
25 °C 8 km - 120°   120° 28 40 kt METAR LFCK 200900Z AUTO 12028G40KT 8000 NSC 25/13 Q1021 BECMG 13020G30KT
10:30
V
24 °C 8 km - 120°   120° 28 39 kt METAR LFCK 200830Z AUTO 12028G39KT 8000 NSC 24/13 Q1021 NOSIG
10:00
V
24 °C 8 km - 120°   120° 28 40 kt METAR LFCK 200800Z AUTO 12028G40KT 8000 NSC 24/13 Q1021 BECMG 13020G30KT
09:30
V
23 °C 8 km - 120°   120° 27 kt METAR LFCK 200730Z AUTO 12027KT 8000 NSC 23/13 Q1021 BECMG 13020G30KT
09:00
V
22 °C 9 km - 120°   120° 29 40 kt METAR LFCK 200700Z AUTO 12029G40KT 9000 NSC 22/13 Q1021 NOSIG
08:30
V
22 °C 9 km - 120°   120° 29 41 kt METAR LFCK 200630Z AUTO 12029G41KT 9000 NSC 22/12 Q1021 NOSIG
08:00
V
21 °C 9 km - 120°   120° 29 41 kt METAR LFCK 200600Z AUTO 12029G41KT 9000 NSC 21/12 Q1021 NOSIG
07:30
V
21 °C 9 km - 120°   120° 31 42 kt METAR LFCK 200530Z AUTO 12031G42KT 9000 NSC 21/12 Q1020 NOSIG
07:00
V
21 °C 10 km+ - 120°   120° 29 42 kt METAR LFCK 200500Z AUTO 12029G42KT CAVOK 21/12 Q1020
06:30
V
21 °C 10 km+ - 120°   120° 29 42 kt METAR LFCK 200430Z AUTO 12029G42KT CAVOK 21/11 Q1020
06:00
V
21 °C 10 km+ - 130°   130° 28 40 kt METAR LFCK 200400Z AUTO 13028G40KT CAVOK 21/11 Q1020
05:30
V
21 °C 10 km+ - 130°   130° 27 41 kt METAR LFCK 200330Z AUTO 13027G41KT CAVOK 21/11 Q1020
05:00
V
21 °C 10 km+ - 130°   130° 29 42 kt METAR LFCK 200300Z AUTO 13029G42KT CAVOK 21/11 Q1020
04:30
V
21 °C 10 km+ - 130°   130° 30 43 kt METAR LFCK 200230Z AUTO 13030G43KT CAVOK 21/11 Q1020
04:00
V
21 °C 10 km+ - 130°   130° 27 39 kt METAR LFCK 200200Z AUTO 13027G39KT CAVOK 21/11 Q1020
03:30
V
21 °C 10 km+ - 120°   120° 31 44 kt METAR LFCK 200130Z AUTO 12031G44KT CAVOK 21/10 Q1019
03:00
V
20 °C 10 km+ - 120°   120° 30 43 kt METAR LFCK 200100Z AUTO 12030G43KT CAVOK 20/11 Q1020
02:30
V
20 °C 10 km+ - 120°   120° 30 42 kt METAR LFCK 200030Z AUTO 12030G42KT CAVOK 20/11 Q1020
02:00
V
20 °C 10 km+ - 120°   120° 29 39 kt METAR LFCK 200000Z AUTO 12029G39KT CAVOK 20/11 Q1020
01:30
V
20 °C 10 km+ - 120°   120° 28 41 kt METAR LFCK 192330Z AUTO 12028G41KT CAVOK 20/12 Q1020
01:00
V
20 °C 10 km+ - 120°   120° 28 40 kt METAR LFCK 192300Z AUTO 12028G40KT CAVOK 20/12 Q1021
00:30
V
20 °C 10 km+ - 120°   120° 29 40 kt METAR LFCK 192230Z AUTO 12029G40KT CAVOK 20/13 Q1021
00:00
V
20 °C 10 km+ - 120°   120° 27 37 kt METAR LFCK 192200Z AUTO 12027G37KT CAVOK 20/13 Q1021

19 mai 2022

Temps Code Temps Temp. Vue Des nuages Vent METAR/SPECI
23:30
V
20 °C 10 km+ - 120°   120° 24 38 kt METAR LFCK 192130Z AUTO 12024G38KT CAVOK 20/13 Q1021
23:00
V
21 °C 10 km+ - 120°   120° 26 36 kt METAR LFCK 192100Z AUTO 12026G36KT CAVOK 21/13 Q1021 NOSIG
22:30
V
21 °C 10 km+ - 120°   120° 26 38 kt METAR LFCK 192030Z AUTO 12026G38KT CAVOK 21/13 Q1021 NOSIG
22:00
V
21 °C 10 km+ - 120°   120° 27 39 kt METAR LFCK 192000Z AUTO 12027G39KT CAVOK 21/13 Q1020 NOSIG
21:30
V
22 °C 10 km+ - 120°   120° 28 39 kt METAR LFCK 191930Z AUTO 12028G39KT CAVOK 22/13 Q1020 NOSIG
21:00
V
22 °C 10 km+ - 120°   120° 27 39 kt METAR LFCK 191900Z AUTO 12027G39KT CAVOK 22/13 Q1020 NOSIG
20:30
V
23 °C 10 km+ - 120°   120° 29 40 kt METAR LFCK 191830Z AUTO 12029G40KT CAVOK 23/14 Q1020 NOSIG
20:00
V
24 °C 10 km+ - 120°   120° 28 kt METAR LFCK 191800Z AUTO 12028KT CAVOK 24/13 Q1020 TEMPO 12028G38KT
19:30
V
24 °C 10 km+ - 130°   130° 25 37 kt METAR LFCK 191730Z AUTO 13025G37KT CAVOK 24/14 Q1020 NOSIG
19:00
V
25 °C 10 km+ - 130°   130° 24 kt METAR LFCK 191700Z AUTO 13024KT CAVOK 25/14 Q1020 TEMPO 12028G38KT
18:30
V
26 °C 10 km+ - 130°   130° 26 39 kt METAR LFCK 191630Z AUTO 13026G39KT CAVOK 26/14 Q1020 NOSIG
18:00
V
26 °C 10 km+ - 130°   130° 21 34 kt METAR LFCK 191600Z AUTO 13021G34KT 090V150 CAVOK 26/13 Q1020 NOSIG
17:30
V
27 °C 10 km+ - 120°   120° 21 31 kt METAR LFCK 191530Z AUTO 12021G31KT CAVOK 27/14 Q1020 NOSIG
17:00
V
27 °C 9 km - 120°   120° 19 kt METAR LFCK 191500Z AUTO 12019KT 9000 NSC 27/14 Q1020 TEMPO 12028G38KT
16:30
V
27 °C 10 km+ - 120°   120° 20 32 kt METAR LFCK 191430Z AUTO 12020G32KT CAVOK 27/14 Q1021 NOSIG
16:00
V
27 °C 10 km+ - 120°   120° 21 kt METAR LFCK 191400Z AUTO 12021KT 090V150 CAVOK 27/15 Q1021 TEMPO 12028G38KT
15:30
V
27 °C 10 km+ - 120°   120° 20 32 kt METAR LFCK 191330Z AUTO 12020G32KT 090V150 CAVOK 27/15 Q1021 NOSIG
15:00
V
27 °C 10 km+ - 110°   110° 21 34 kt METAR LFCK 191300Z AUTO 11021G34KT CAVOK 27/15 Q1021 NOSIG
14:30
V
27 °C 10 km+ - 110°   110° 17 kt METAR LFCK 191230Z AUTO 11017KT 080V160 CAVOK 27/14 Q1021 TEMPO 12028G38KT
14:00
V
27 °C 10 km+ - 120°   120° 20 kt METAR LFCK 191200Z AUTO 12020KT 090V160 CAVOK 27/15 Q1021 TEMPO 12028G38KT
13:30
V
27 °C 10 km+ - 120°   120° 21 35 kt METAR LFCK 191130Z AUTO 12021G35KT CAVOK 27/15 Q1021 NOSIG
13:00
V
26 °C 10 km+ - 120°   120° 22 32 kt METAR LFCK 191100Z AUTO 12022G32KT CAVOK 26/15 Q1021 NOSIG
12:30
V
26 °C 10 km+ - 120°   120° 18 29 kt METAR LFCK 191030Z AUTO 12018G29KT CAVOK 26/15 Q1021 NOSIG
12:00
V
26 °C 10 km+ - 120°   120° 14 kt METAR LFCK 191000Z AUTO 12014KT 090V180 CAVOK 26/15 Q1021 BECMG 13020G35KT
11:30
V
25 °C 10 km+ - 120°   120° 21 31 kt METAR LFCK 190930Z AUTO 12021G31KT 080V140 CAVOK 25/14 Q1021 NOSIG
11:00
V
24 °C 10 km+ - 130°   130° 19 kt METAR LFCK 190900Z AUTO 13019KT 100V160 CAVOK 24/15 Q1021 BECMG 13020G35KT
10:30
V
24 °C 10 km+ - 120°   120° 21 33 kt METAR LFCK 190830Z AUTO 12021G33KT CAVOK 24/14 Q1021 NOSIG
10:00
V
23 °C 10 km+ - 120°   120° 20 33 kt METAR LFCK 190800Z AUTO 12020G33KT 080V150 CAVOK 23/14 Q1021 NOSIG
09:30
V
23 °C 10 km+ - 130°   130° 15 kt METAR LFCK 190730Z AUTO 13015KT 080V170 CAVOK 23/14 Q1022 BECMG 13020G35KT
09:00
V
22 °C 10 km+ - 120°   120° 20 kt METAR LFCK 190700Z AUTO 12020KT CAVOK 22/14 Q1021 BECMG 13020G35KT
08:30
V
21 °C 10 km+ - 130°   130° 19 kt METAR LFCK 190630Z AUTO 13019KT CAVOK 21/13 Q1021 BECMG 13020G35KT
08:00
V
20 °C 10 km+ - 120°   120° 18 kt METAR LFCK 190600Z AUTO 12018KT 090V150 CAVOK 20/13 Q1021 BECMG 13020G35KT
07:30
V
20 °C 10 km+ - 120°   120° 18 30 kt METAR LFCK 190530Z AUTO 12018G30KT CAVOK 20/13 Q1021 NOSIG
07:00
V
19 °C 10 km+ - 130°   130° 19 kt METAR LFCK 190500Z AUTO 13019KT CAVOK 19/14 Q1020
06:30
V
19 °C 10 km+ - 120°   120° 16 kt METAR LFCK 190430Z AUTO 12016KT CAVOK 19/14 Q1020
06:00
V
19 °C 10 km+ - 120°   120° 15 kt METAR LFCK 190400Z AUTO 12015KT CAVOK 19/14 Q1020
05:30
V
19 °C 10 km+ - 130°   130° 13 kt METAR LFCK 190330Z AUTO 13013KT CAVOK 19/14 Q1021
05:00
V
19 °C 10 km+ - 140°   140° 13 kt METAR LFCK 190300Z AUTO 14013KT CAVOK 19/14 Q1021
04:30
V
19 °C 10 km+ - 130°   130° 13 kt METAR LFCK 190230Z AUTO 13013KT 9999 ///CB 19/14 Q1021
04:00
V
20 °C 10 km+ - 140°   140° 12 kt METAR LFCK 190200Z AUTO 14012KT 9999 ///CB 20/13 Q1021
03:30
V
21 °C 10 km+ - 120°   120° 15 kt METAR LFCK 190130Z AUTO 12015KT CAVOK 21/13 Q1020
03:00
V
22 °C 10 km+ - 130°   130° 23 kt METAR LFCK 190100Z AUTO 13023KT CAVOK 22/13 Q1018
02:30
V
22 °C 10 km+ - 130°   130° 21 31 kt METAR LFCK 190030Z AUTO 13021G31KT CAVOK 22/13 Q1018
02:00
V
23 °C 10 km+ - 130°   130° 22 kt METAR LFCK 190000Z AUTO 13022KT CAVOK 23/12 Q1018
01:30
V
23 °C 10 km+ - 130°   130° 20 kt METAR LFCK 182330Z AUTO 13020KT CAVOK 23/12 Q1018
01:00
V
23 °C 10 km+ - 130°   130° 20 kt METAR LFCK 182300Z AUTO 13020KT CAVOK 23/12 Q1018
00:30
V
23 °C 10 km+ - 120°   120° 20 kt METAR LFCK 182230Z AUTO 12020KT CAVOK 23/13 Q1018
00:00
V
24 °C 10 km+ - 120°   120° 20 kt METAR LFCK 182200Z AUTO 12020KT CAVOK 24/13 Q1018

18 mai 2022

Temps Code Temps Temp. Vue Des nuages Vent METAR/SPECI
23:30
V
24 °C 10 km+ - 120°   120° 20 kt METAR LFCK 182130Z AUTO 12020KT CAVOK 24/13 Q1018
23:00
V
25 °C 10 km+ - 120°   120° 19 kt METAR LFCK 182100Z AUTO 12019KT CAVOK 25/13 Q1018 TEMPO 12020G30KT
22:30
V
25 °C 10 km+ - 120°   120° 19 kt METAR LFCK 182030Z AUTO 12019KT CAVOK 25/13 Q1018 TEMPO 12020G30KT
22:00
V
25 °C 10 km+ - 120°   120° 18 kt METAR LFCK 182000Z AUTO 12018KT CAVOK 25/13 Q1018 TEMPO 12020G30KT
21:30
V
25 °C 10 km+ - 120°   120° 17 kt METAR LFCK 181930Z AUTO 12017KT CAVOK 25/13 Q1018 TEMPO 12020G30KT
21:00
V
26 °C 10 km+ - 130°   130° 16 kt METAR LFCK 181900Z AUTO 13016KT CAVOK 26/14 Q1018 TEMPO 12020G30KT
20:30
V
27 °C 10 km+ - 130°   130° 14 kt METAR LFCK 181830Z AUTO 13014KT CAVOK 27/13 Q1017 TEMPO 12020G30KT
20:00
V
28 °C 10 km+ - 130°   130° 14 kt METAR LFCK 181800Z AUTO 13014KT CAVOK 28/13 Q1017 TEMPO 12020G30KT
19:30
V
29 °C 10 km+ - 120°   120° 14 kt METAR LFCK 181730Z AUTO 12014KT CAVOK 29/13 Q1017 TEMPO 12017G27KT
19:00
V
30 °C 10 km+ - 120°   120° 15 kt METAR LFCK 181700Z AUTO 12015KT CAVOK 30/13 Q1017 TEMPO 12017G27KT
18:30
V
30 °C 10 km+ - 120°   120° 16 kt METAR LFCK 181630Z AUTO 12016KT CAVOK 30/14 Q1017 TEMPO 12017G27KT
18:00
V
31 °C 10 km+ - 120°   120° 17 kt METAR LFCK 181600Z AUTO 12017KT CAVOK 31/13 Q1017 TEMPO 12017G27KT
17:30
V
31 °C 10 km+ - 130°   130° 16 kt METAR LFCK 181530Z AUTO 13016KT CAVOK 31/13 Q1017 TEMPO 12017G27KT
17:00
V
32 °C 10 km+ - 140°   140° 14 kt METAR LFCK 181500Z AUTO 14014KT CAVOK 32/13 Q1017 TEMPO 12016G26KT
Données plus anciennes

Télécharge notre application

Un accès facile à toute la météo aéronautique sur ton téléphone portable et ta tablette.
Avec de nombreuses fonctionnalités non disponibles sur le site Web, comme la prise en charge hors ligne et une liste personnelle d'aéroports.

Nous et des tiers suivons ton comportement sur Internet sur notre site Web à l'aide de cookies. Si tu continues, nous supposons que tu acceptes notre politique en matière de cookies. Apprendre plus